createdAt,value
2022-09-21T00:00:45.759Z,12.63
2022-09-21T00:16:09.085Z,12.67
2022-09-21T00:31:18.330Z,12.65
2022-09-21T00:46:28.486Z,12.59
2022-09-21T01:01:31.919Z,12.55
2022-09-21T01:16:50.761Z,12.47
2022-09-21T01:32:09.992Z,12.54
2022-09-21T01:47:14.660Z,12.56
2022-09-21T02:02:33.773Z,12.54
2022-09-21T02:17:47.270Z,12.44
2022-09-21T02:33:20.996Z,12.46
2022-09-21T02:48:56.990Z,12.38
2022-09-21T03:04:01.224Z,12.18
2022-09-21T03:19:05.175Z,12.23
2022-09-21T03:34:08.586Z,12.29
2022-09-21T03:49:12.288Z,12.24
2022-09-21T04:04:35.671Z,12.12
2022-09-21T04:19:39.332Z,12.11
2022-09-21T04:34:42.740Z,12.17
2022-09-21T04:49:45.947Z,12.19
2022-09-21T05:04:51.125Z,12.13
2022-09-21T05:19:55.127Z,12.16
2022-09-21T05:35:16.307Z,12.44
2022-09-21T05:50:26.099Z,12.65
2022-09-21T06:05:29.187Z,12.95
2022-09-21T06:20:32.821Z,13.31
2022-09-21T06:35:37.439Z,13.65
2022-09-21T06:50:40.992Z,13.90
2022-09-21T07:05:47.886Z,14.06
2022-09-21T07:20:51.287Z,14.33
2022-09-21T07:35:58.539Z,14.19
2022-09-21T07:51:13.453Z,14.44
2022-09-21T08:06:17.155Z,14.88
2022-09-21T08:21:23.129Z,15.64
2022-09-21T08:36:26.894Z,16.44
2022-09-21T08:51:40.980Z,16.05
2022-09-21T09:07:09.117Z,16.02
2022-09-21T09:22:17.804Z,16.54
2022-09-21T09:37:25.303Z,17.42
2022-09-21T09:52:29.374Z,17.36
2022-09-21T10:07:38.657Z,16.06
2022-09-21T10:22:48.861Z,16.30
2022-09-21T10:38:22.149Z,18.36
2022-09-21T10:53:32.613Z,18.60
2022-09-21T11:08:42.879Z,19.84
2022-09-21T11:23:46.445Z,21.25
2022-09-21T11:39:27.433Z,21.45
2022-09-21T11:54:52.226Z,21.70
2022-09-21T12:10:03.655Z,21.30
2022-09-21T12:25:17.190Z,19.46
2022-09-21T12:40:38.352Z,21.02
2022-09-21T12:55:57.198Z,20.24
2022-09-21T13:11:08.096Z,17.12
2022-09-21T13:26:14.442Z,17.22
2022-09-21T13:41:17.921Z,17.96
2022-09-21T13:56:25.928Z,19.81
2022-09-21T14:11:32.052Z,22.93
2022-09-21T14:26:42.811Z,22.42
2022-09-21T14:41:50.492Z,18.39
2022-09-21T14:57:06.209Z,17.14
2022-09-21T15:12:26.621Z,16.65
2022-09-21T15:27:33.964Z,17.22
2022-09-21T15:43:07.057Z,17.41
2022-09-21T15:58:32.316Z,16.86
2022-09-21T16:13:54.747Z,17.27
2022-09-21T16:29:20.027Z,17.44
2022-09-21T16:44:26.945Z,16.49
2022-09-21T16:59:31.010Z,15.63
2022-09-21T17:14:36.541Z,14.98
2022-09-21T17:29:47.798Z,14.52
2022-09-21T17:45:04.402Z,14.22
2022-09-21T18:00:22.646Z,13.91
2022-09-21T18:15:45.755Z,13.68
2022-09-21T18:31:05.716Z,13.32
2022-09-21T18:46:15.607Z,13.10
2022-09-21T19:01:23.059Z,12.92
2022-09-21T19:16:39.484Z,12.97
2022-09-21T19:31:43.034Z,12.96
2022-09-21T19:47:10.917Z,12.96
2022-09-21T20:02:32.927Z,12.96
2022-09-21T20:17:46.358Z,12.74
2022-09-21T20:32:56.406Z,12.44
2022-09-21T20:48:13.647Z,12.23
2022-09-21T21:03:17.697Z,12.01
2022-09-21T21:18:21.052Z,11.87
2022-09-21T21:33:24.488Z,11.72
2022-09-21T21:48:27.839Z,11.55
2022-09-21T22:03:31.263Z,11.37
2022-09-21T22:18:38.503Z,11.13
2022-09-21T22:33:41.828Z,11.06
2022-09-21T22:48:45.888Z,11.00
2022-09-21T23:03:51.291Z,10.81
2022-09-21T23:18:55.433Z,10.60
2022-09-21T23:34:12.006Z,10.37
2022-09-21T23:49:15.571Z,10.14
